sensor_id;sensor_type;location;lat;lon;timestamp;P1;durP1;ratioP1;P2;durP2;ratioP2
71973;SDS011;59840;52.122;5.404;2023-01-23T00:00:56;7.67;;;4.13;;
71973;SDS011;59840;52.122;5.404;2023-01-23T00:03:23;9.40;;;4.68;;
71973;SDS011;59840;52.122;5.404;2023-01-23T00:05:57;9.93;;;5.22;;
71973;SDS011;59840;52.122;5.404;2023-01-23T00:08:25;9.45;;;5.00;;
71973;SDS011;59840;52.122;5.404;2023-01-23T00:10:52;15.45;;;4.82;;
71973;SDS011;59840;52.122;5.404;2023-01-23T00:13:19;9.17;;;3.83;;
71973;SDS011;59840;52.122;5.404;2023-01-23T00:15:46;11.80;;;3.85;;
71973;SDS011;59840;52.122;5.404;2023-01-23T00:18:13;14.98;;;5.03;;
71973;SDS011;59840;52.122;5.404;2023-01-23T00:20:40;16.13;;;5.13;;
71973;SDS011;59840;52.122;5.404;2023-01-23T00:23:08;8.77;;;4.82;;
71973;SDS011;59840;52.122;5.404;2023-01-23T00:25:35;10.27;;;4.47;;
71973;SDS011;59840;52.122;5.404;2023-01-23T00:28:02;7.40;;;4.05;;
71973;SDS011;59840;52.122;5.404;2023-01-23T00:30:29;10.75;;;4.68;;
71973;SDS011;59840;52.122;5.404;2023-01-23T00:32:55;9.90;;;3.53;;
71973;SDS011;59840;52.122;5.404;2023-01-23T00:35:22;8.40;;;4.82;;
71973;SDS011;59840;52.122;5.404;2023-01-23T00:37:48;9.57;;;5.37;;
71973;SDS011;59840;52.122;5.404;2023-01-23T00:40:15;10.18;;;4.60;;
71973;SDS011;59840;52.122;5.404;2023-01-23T00:42:42;5.68;;;3.20;;
71973;SDS011;59840;52.122;5.404;2023-01-23T00:45:08;9.90;;;4.10;;
71973;SDS011;59840;52.122;5.404;2023-01-23T00:47:35;10.20;;;3.92;;
71973;SDS011;59840;52.122;5.404;2023-01-23T00:50:02;7.00;;;4.40;;
71973;SDS011;59840;52.122;5.404;2023-01-23T00:52:28;10.45;;;4.75;;
71973;SDS011;59840;52.122;5.404;2023-01-23T00:54:55;8.05;;;4.47;;
71973;SDS011;59840;52.122;5.404;2023-01-23T00:57:22;8.73;;;4.47;;
71973;SDS011;59840;52.122;5.404;2023-01-23T00:59:48;13.00;;;5.20;;
71973;SDS011;59840;52.122;5.404;2023-01-23T01:02:15;10.43;;;4.30;;
71973;SDS011;59840;52.122;5.404;2023-01-23T01:04:41;9.18;;;4.90;;
71973;SDS011;59840;52.122;5.404;2023-01-23T01:07:08;10.68;;;4.65;;
71973;SDS011;59840;52.122;5.404;2023-01-23T01:09:34;10.35;;;4.63;;
71973;SDS011;59840;52.122;5.404;2023-01-23T01:12:01;12.82;;;4.50;;
71973;SDS011;59840;52.122;5.404;2023-01-23T01:14:27;7.60;;;4.50;;
71973;SDS011;59840;52.122;5.404;2023-01-23T01:16:54;9.65;;;4.15;;
71973;SDS011;59840;52.122;5.404;2023-01-23T01:19:20;8.68;;;4.53;;
71973;SDS011;59840;52.122;5.404;2023-01-23T01:21:47;10.38;;;4.22;;
71973;SDS011;59840;52.122;5.404;2023-01-23T01:24:13;10.50;;;4.32;;
71973;SDS011;59840;52.122;5.404;2023-01-23T01:26:40;11.53;;;5.27;;
71973;SDS011;59840;52.122;5.404;2023-01-23T01:29:06;10.10;;;4.95;;
71973;SDS011;59840;52.122;5.404;2023-01-23T01:31:33;9.98;;;4.80;;
71973;SDS011;59840;52.122;5.404;2023-01-23T01:33:59;9.45;;;4.47;;
71973;SDS011;59840;52.122;5.404;2023-01-23T01:36:26;15.57;;;5.07;;
71973;SDS011;59840;52.122;5.404;2023-01-23T01:38:53;8.40;;;4.63;;
71973;SDS011;59840;52.122;5.404;2023-01-23T01:41:44;10.30;;;5.20;;
71973;SDS011;59840;52.122;5.404;2023-01-23T01:44:18;8.02;;;4.63;;
71973;SDS011;59840;52.122;5.404;2023-01-23T01:46:46;8.35;;;4.63;;
71973;SDS011;59840;52.122;5.404;2023-01-23T01:49:16;11.18;;;5.10;;
71973;SDS011;59840;52.122;5.404;2023-01-23T01:51:47;11.73;;;4.83;;
71973;SDS011;59840;52.122;5.404;2023-01-23T01:57:03;9.13;;;4.55;;
71973;SDS011;59840;52.122;5.404;2023-01-23T01:59:35;14.60;;;4.93;;
71973;SDS011;59840;52.122;5.404;2023-01-23T02:02:10;8.93;;;4.60;;
71973;SDS011;59840;52.122;5.404;2023-01-23T02:04:41;11.47;;;4.70;;
71973;SDS011;59840;52.122;5.404;2023-01-23T02:10:02;10.50;;;5.22;;
71973;SDS011;59840;52.122;5.404;2023-01-23T02:12:30;9.80;;;4.60;;
71973;SDS011;59840;52.122;5.404;2023-01-23T02:15:01;13.77;;;4.70;;
71973;SDS011;59840;52.122;5.404;2023-01-23T02:17:29;7.73;;;4.10;;
71973;SDS011;59840;52.122;5.404;2023-01-23T02:22:54;9.93;;;4.60;;
71973;SDS011;59840;52.122;5.404;2023-01-23T02:28:36;14.95;;;5.35;;
71973;SDS011;59840;52.122;5.404;2023-01-23T02:31:05;9.37;;;4.37;;
71973;SDS011;59840;52.122;5.404;2023-01-23T02:36:00;11.85;;;5.32;;
71973;SDS011;59840;52.122;5.404;2023-01-23T02:38:39;11.43;;;4.88;;
71973;SDS011;59840;52.122;5.404;2023-01-23T02:41:36;10.48;;;4.25;;
71973;SDS011;59840;52.122;5.404;2023-01-23T02:44:09;12.93;;;5.50;;
71973;SDS011;59840;52.122;5.404;2023-01-23T02:46:41;11.60;;;4.70;;
71973;SDS011;59840;52.122;5.404;2023-01-23T02:49:08;10.80;;;5.32;;
71973;SDS011;59840;52.122;5.404;2023-01-23T02:51:34;11.98;;;5.63;;
71973;SDS011;59840;52.122;5.404;2023-01-23T02:54:01;10.00;;;4.88;;
71973;SDS011;59840;52.122;5.404;2023-01-23T02:56:28;11.40;;;4.83;;
71973;SDS011;59840;52.122;5.404;2023-01-23T02:58:54;12.00;;;5.07;;
71973;SDS011;59840;52.122;5.404;2023-01-23T03:01:39;18.85;;;5.80;;
71973;SDS011;59840;52.122;5.404;2023-01-23T03:04:06;12.50;;;4.80;;
71973;SDS011;59840;52.122;5.404;2023-01-23T03:06:33;12.02;;;5.45;;
71973;SDS011;59840;52.122;5.404;2023-01-23T03:09:04;9.57;;;5.20;;
71973;SDS011;59840;52.122;5.404;2023-01-23T03:11:35;17.33;;;5.80;;
71973;SDS011;59840;52.122;5.404;2023-01-23T03:14:04;10.27;;;5.00;;
71973;SDS011;59840;52.122;5.404;2023-01-23T03:16:32;11.27;;;5.10;;
71973;SDS011;59840;52.122;5.404;2023-01-23T03:19:04;13.35;;;4.97;;
71973;SDS011;59840;52.122;5.404;2023-01-23T03:21:38;10.40;;;4.90;;
71973;SDS011;59840;52.122;5.404;2023-01-23T03:24:11;8.40;;;5.32;;
71973;SDS011;59840;52.122;5.404;2023-01-23T03:26:40;12.25;;;5.60;;
71973;SDS011;59840;52.122;5.404;2023-01-23T03:29:18;9.35;;;5.03;;
71973;SDS011;59840;52.122;5.404;2023-01-23T03:32:07;8.10;;;4.80;;
71973;SDS011;59840;52.122;5.404;2023-01-23T03:34:35;11.37;;;4.73;;
71973;SDS011;59840;52.122;5.404;2023-01-23T03:37:02;8.57;;;4.85;;
71973;SDS011;59840;52.122;5.404;2023-01-23T03:39:28;14.35;;;5.57;;
71973;SDS011;59840;52.122;5.404;2023-01-23T03:42:14;11.57;;;5.28;;
71973;SDS011;59840;52.122;5.404;2023-01-23T03:44:41;15.73;;;5.88;;
71973;SDS011;59840;52.122;5.404;2023-01-23T03:47:08;9.60;;;4.80;;
71973;SDS011;59840;52.122;5.404;2023-01-23T03:49:34;8.82;;;4.03;;
71973;SDS011;59840;52.122;5.404;2023-01-23T03:52:01;11.68;;;5.18;;
71973;SDS011;59840;52.122;5.404;2023-01-23T03:54:28;10.05;;;5.57;;
71973;SDS011;59840;52.122;5.404;2023-01-23T03:56:55;9.60;;;5.68;;
71973;SDS011;59840;52.122;5.404;2023-01-23T03:59:21;9.83;;;5.07;;
71973;SDS011;59840;52.122;5.404;2023-01-23T04:01:48;12.70;;;5.22;;
71973;SDS011;59840;52.122;5.404;2023-01-23T04:04:14;10.88;;;5.63;;
71973;SDS011;59840;52.122;5.404;2023-01-23T04:06:41;13.65;;;5.53;;
71973;SDS011;59840;52.122;5.404;2023-01-23T04:09:07;16.08;;;5.78;;
71973;SDS011;59840;52.122;5.404;2023-01-23T04:11:34;17.37;;;5.37;;
71973;SDS011;59840;52.122;5.404;2023-01-23T04:14:00;13.82;;;5.20;;
71973;SDS011;59840;52.122;5.404;2023-01-23T04:16:27;15.57;;;4.90;;
71973;SDS011;59840;52.122;5.404;2023-01-23T04:18:54;11.55;;;5.22;;
71973;SDS011;59840;52.122;5.404;2023-01-23T04:21:21;15.43;;;4.75;;
71973;SDS011;59840;52.122;5.404;2023-01-23T04:23:47;9.33;;;5.03;;
71973;SDS011;59840;52.122;5.404;2023-01-23T04:26:14;14.43;;;5.72;;
71973;SDS011;59840;52.122;5.404;2023-01-23T04:28:40;11.57;;;5.78;;
71973;SDS011;59840;52.122;5.404;2023-01-23T04:31:07;15.23;;;6.00;;
71973;SDS011;59840;52.122;5.404;2023-01-23T04:33:34;11.88;;;5.45;;
71973;SDS011;59840;52.122;5.404;2023-01-23T04:36:02;17.17;;;6.00;;
71973;SDS011;59840;52.122;5.404;2023-01-23T04:38:31;13.25;;;5.53;;
71973;SDS011;59840;52.122;5.404;2023-01-23T04:40:58;9.80;;;5.57;;
71973;SDS011;59840;52.122;5.404;2023-01-23T04:43:25;11.88;;;5.53;;
71973;SDS011;59840;52.122;5.404;2023-01-23T04:45:53;10.57;;;5.30;;
71973;SDS011;59840;52.122;5.404;2023-01-23T04:48:21;12.37;;;5.73;;
71973;SDS011;59840;52.122;5.404;2023-01-23T04:50:48;8.50;;;4.78;;
71973;SDS011;59840;52.122;5.404;2023-01-23T04:53:15;14.23;;;5.97;;
71973;SDS011;59840;52.122;5.404;2023-01-23T04:55:42;9.88;;;5.40;;
71973;SDS011;59840;52.122;5.404;2023-01-23T04:58:11;10.93;;;5.82;;
71973;SDS011;59840;52.122;5.404;2023-01-23T05:00:37;11.43;;;4.30;;
71973;SDS011;59840;52.122;5.404;2023-01-23T05:03:04;10.88;;;4.57;;
71973;SDS011;59840;52.122;5.404;2023-01-23T05:05:31;14.13;;;5.63;;
71973;SDS011;59840;52.122;5.404;2023-01-23T05:07:58;10.57;;;5.43;;
71973;SDS011;59840;52.122;5.404;2023-01-23T05:10:25;12.82;;;5.97;;
71973;SDS011;59840;52.122;5.404;2023-01-23T05:12:51;10.43;;;5.40;;
71973;SDS011;59840;52.122;5.404;2023-01-23T05:15:18;9.68;;;5.25;;
71973;SDS011;59840;52.122;5.404;2023-01-23T05:17:46;9.98;;;5.72;;
71973;SDS011;59840;52.122;5.404;2023-01-23T05:20:14;10.65;;;6.18;;
71973;SDS011;59840;52.122;5.404;2023-01-23T05:22:41;17.05;;;5.28;;
71973;SDS011;59840;52.122;5.404;2023-01-23T05:25:18;12.40;;;5.70;;
71973;SDS011;59840;52.122;5.404;2023-01-23T05:27:49;15.38;;;5.50;;
71973;SDS011;59840;52.122;5.404;2023-01-23T05:30:16;12.10;;;5.50;;
71973;SDS011;59840;52.122;5.404;2023-01-23T05:32:46;11.52;;;5.05;;
71973;SDS011;59840;52.122;5.404;2023-01-23T05:35:13;13.93;;;5.45;;
71973;SDS011;59840;52.122;5.404;2023-01-23T05:37:40;11.57;;;5.47;;
71973;SDS011;59840;52.122;5.404;2023-01-23T05:40:07;10.88;;;5.97;;
71973;SDS011;59840;52.122;5.404;2023-01-23T05:42:36;14.98;;;5.20;;
71973;SDS011;59840;52.122;5.404;2023-01-23T05:45:03;10.23;;;4.60;;
71973;SDS011;59840;52.122;5.404;2023-01-23T05:47:29;12.55;;;5.53;;
71973;SDS011;59840;52.122;5.404;2023-01-23T05:49:56;11.77;;;5.20;;
71973;SDS011;59840;52.122;5.404;2023-01-23T05:52:23;10.68;;;5.35;;
71973;SDS011;59840;52.122;5.404;2023-01-23T05:54:49;11.75;;;4.88;;
71973;SDS011;59840;52.122;5.404;2023-01-23T05:57:16;11.40;;;5.63;;
71973;SDS011;59840;52.122;5.404;2023-01-23T05:59:42;10.75;;;5.70;;
71973;SDS011;59840;52.122;5.404;2023-01-23T06:02:09;8.57;;;5.07;;
71973;SDS011;59840;52.122;5.404;2023-01-23T06:04:36;11.35;;;5.65;;
71973;SDS011;59840;52.122;5.404;2023-01-23T06:07:03;8.52;;;4.85;;
71973;SDS011;59840;52.122;5.404;2023-01-23T06:09:29;12.32;;;5.85;;
71973;SDS011;59840;52.122;5.404;2023-01-23T06:11:56;12.52;;;5.47;;
71973;SDS011;59840;52.122;5.404;2023-01-23T06:14:22;13.10;;;5.43;;
71973;SDS011;59840;52.122;5.404;2023-01-23T06:16:49;11.10;;;6.03;;
71973;SDS011;59840;52.122;5.404;2023-01-23T06:19:15;15.05;;;6.47;;
71973;SDS011;59840;52.122;5.404;2023-01-23T06:21:42;11.80;;;5.95;;
71973;SDS011;59840;52.122;5.404;2023-01-23T06:24:08;17.25;;;4.53;;
71973;SDS011;59840;52.122;5.404;2023-01-23T06:26:35;13.20;;;5.67;;
71973;SDS011;59840;52.122;5.404;2023-01-23T06:29:02;8.35;;;5.32;;
71973;SDS011;59840;52.122;5.404;2023-01-23T06:31:28;8.18;;;3.97;;
71973;SDS011;59840;52.122;5.404;2023-01-23T06:33:58;12.73;;;6.07;;
71973;SDS011;59840;52.122;5.404;2023-01-23T06:36:25;11.93;;;6.38;;
71973;SDS011;59840;52.122;5.404;2023-01-23T06:38:52;11.70;;;5.53;;
71973;SDS011;59840;52.122;5.404;2023-01-23T06:41:18;15.93;;;5.60;;
71973;SDS011;59840;52.122;5.404;2023-01-23T06:43:45;11.60;;;5.63;;
71973;SDS011;59840;52.122;5.404;2023-01-23T06:46:12;12.65;;;6.50;;
71973;SDS011;59840;52.122;5.404;2023-01-23T06:48:39;12.38;;;6.32;;
71973;SDS011;59840;52.122;5.404;2023-01-23T06:51:05;20.83;;;6.30;;
71973;SDS011;59840;52.122;5.404;2023-01-23T06:53:32;12.98;;;5.40;;
71973;SDS011;59840;52.122;5.404;2023-01-23T06:56:02;14.05;;;6.13;;
71973;SDS011;59840;52.122;5.404;2023-01-23T06:58:31;8.80;;;4.72;;
71973;SDS011;59840;52.122;5.404;2023-01-23T07:00:59;13.13;;;6.10;;
71973;SDS011;59840;52.122;5.404;2023-01-23T07:03:34;13.07;;;6.57;;
71973;SDS011;59840;52.122;5.404;2023-01-23T07:06:01;11.80;;;5.22;;
71973;SDS011;59840;52.122;5.404;2023-01-23T07:08:32;11.75;;;5.53;;
71973;SDS011;59840;52.122;5.404;2023-01-23T07:10:59;12.65;;;5.60;;
71973;SDS011;59840;52.122;5.404;2023-01-23T07:13:27;11.93;;;5.95;;
71973;SDS011;59840;52.122;5.404;2023-01-23T07:15:54;13.77;;;6.17;;
71973;SDS011;59840;52.122;5.404;2023-01-23T07:18:21;10.93;;;6.15;;
71973;SDS011;59840;52.122;5.404;2023-01-23T07:20:48;12.32;;;6.18;;
71973;SDS011;59840;52.122;5.404;2023-01-23T07:23:17;12.10;;;5.65;;
71973;SDS011;59840;52.122;5.404;2023-01-23T07:25:44;12.77;;;5.93;;
71973;SDS011;59840;52.122;5.404;2023-01-23T07:28:11;13.07;;;6.50;;
71973;SDS011;59840;52.122;5.404;2023-01-23T07:30:37;10.15;;;4.75;;
71973;SDS011;59840;52.122;5.404;2023-01-23T07:33:04;12.15;;;6.47;;
71973;SDS011;59840;52.122;5.404;2023-01-23T07:35:32;14.18;;;6.65;;
71973;SDS011;59840;52.122;5.404;2023-01-23T07:37:58;12.45;;;5.70;;
71973;SDS011;59840;52.122;5.404;2023-01-23T07:40:25;11.37;;;6.30;;
71973;SDS011;59840;52.122;5.404;2023-01-23T07:42:51;14.98;;;6.15;;
71973;SDS011;59840;52.122;5.404;2023-01-23T07:45:18;11.45;;;5.55;;
71973;SDS011;59840;52.122;5.404;2023-01-23T07:47:46;12.27;;;5.88;;
71973;SDS011;59840;52.122;5.404;2023-01-23T07:50:13;11.80;;;6.40;;
71973;SDS011;59840;52.122;5.404;2023-01-23T07:52:39;17.83;;;7.07;;
71973;SDS011;59840;52.122;5.404;2023-01-23T07:55:07;9.13;;;4.75;;
71973;SDS011;59840;52.122;5.404;2023-01-23T07:57:34;15.15;;;6.57;;
71973;SDS011;59840;52.122;5.404;2023-01-23T08:00:00;13.13;;;6.72;;
71973;SDS011;59840;52.122;5.404;2023-01-23T08:02:27;14.05;;;7.20;;
71973;SDS011;59840;52.122;5.404;2023-01-23T08:04:53;11.07;;;6.00;;
71973;SDS011;59840;52.122;5.404;2023-01-23T08:07:20;20.23;;;7.43;;
71973;SDS011;59840;52.122;5.404;2023-01-23T08:09:47;14.25;;;7.05;;
71973;SDS011;59840;52.122;5.404;2023-01-23T08:12:14;17.08;;;7.18;;
71973;SDS011;59840;52.122;5.404;2023-01-23T08:14:40;11.50;;;6.88;;
71973;SDS011;59840;52.122;5.404;2023-01-23T08:17:07;14.57;;;7.53;;
71973;SDS011;59840;52.122;5.404;2023-01-23T08:19:33;13.63;;;7.03;;
71973;SDS011;59840;52.122;5.404;2023-01-23T08:22:00;12.77;;;6.15;;
71973;SDS011;59840;52.122;5.404;2023-01-23T08:24:26;13.95;;;6.55;;
71973;SDS011;59840;52.122;5.404;2023-01-23T08:26:53;12.93;;;6.78;;
71973;SDS011;59840;52.122;5.404;2023-01-23T08:29:19;13.03;;;6.97;;
71973;SDS011;59840;52.122;5.404;2023-01-23T08:31:46;17.77;;;7.38;;
71973;SDS011;59840;52.122;5.404;2023-01-23T08:34:13;14.32;;;6.80;;
71973;SDS011;59840;52.122;5.404;2023-01-23T08:36:40;13.00;;;6.53;;
71973;SDS011;59840;52.122;5.404;2023-01-23T08:39:07;13.05;;;6.30;;
71973;SDS011;59840;52.122;5.404;2023-01-23T08:41:34;13.17;;;6.50;;
71973;SDS011;59840;52.122;5.404;2023-01-23T08:44:01;15.10;;;7.47;;
71973;SDS011;59840;52.122;5.404;2023-01-23T08:46:29;12.93;;;6.43;;
71973;SDS011;59840;52.122;5.404;2023-01-23T08:48:56;15.30;;;7.28;;
71973;SDS011;59840;52.122;5.404;2023-01-23T08:51:23;13.98;;;7.07;;
71973;SDS011;59840;52.122;5.404;2023-01-23T08:53:51;13.27;;;7.20;;
71973;SDS011;59840;52.122;5.404;2023-01-23T08:56:19;13.93;;;7.55;;
71973;SDS011;59840;52.122;5.404;2023-01-23T08:58:48;14.50;;;7.88;;
71973;SDS011;59840;52.122;5.404;2023-01-23T09:01:16;17.23;;;7.57;;
71973;SDS011;59840;52.122;5.404;2023-01-23T09:03:45;15.82;;;6.65;;
71973;SDS011;59840;52.122;5.404;2023-01-23T09:06:13;15.77;;;7.10;;
71973;SDS011;59840;52.122;5.404;2023-01-23T09:08:41;14.57;;;6.97;;
71973;SDS011;59840;52.122;5.404;2023-01-23T09:11:09;14.98;;;6.65;;
71973;SDS011;59840;52.122;5.404;2023-01-23T09:13:37;18.65;;;7.68;;
71973;SDS011;59840;52.122;5.404;2023-01-23T09:16:05;15.38;;;7.70;;
71973;SDS011;59840;52.122;5.404;2023-01-23T09:18:34;13.67;;;6.47;;
71973;SDS011;59840;52.122;5.404;2023-01-23T09:21:05;14.85;;;6.90;;
71973;SDS011;59840;52.122;5.404;2023-01-23T09:23:39;13.35;;;7.10;;
71973;SDS011;59840;52.122;5.404;2023-01-23T09:26:06;17.10;;;7.85;;
71973;SDS011;59840;52.122;5.404;2023-01-23T09:28:36;16.73;;;7.97;;
71973;SDS011;59840;52.122;5.404;2023-01-23T09:31:04;12.03;;;6.63;;
71973;SDS011;59840;52.122;5.404;2023-01-23T09:33:36;15.70;;;7.32;;
71973;SDS011;59840;52.122;5.404;2023-01-23T09:36:03;13.95;;;7.82;;
71973;SDS011;59840;52.122;5.404;2023-01-23T09:38:30;15.50;;;8.07;;
71973;SDS011;59840;52.122;5.404;2023-01-23T09:40:59;15.85;;;8.00;;
71973;SDS011;59840;52.122;5.404;2023-01-23T09:46:18;13.07;;;6.95;;
71973;SDS011;59840;52.122;5.404;2023-01-23T09:54:06;16.38;;;7.90;;
71973;SDS011;59840;52.122;5.404;2023-01-23T09:56:45;12.70;;;6.70;;
71973;SDS011;59840;52.122;5.404;2023-01-23T09:59:14;14.60;;;7.55;;
71973;SDS011;59840;52.122;5.404;2023-01-23T10:01:49;11.40;;;5.72;;
71973;SDS011;59840;52.122;5.404;2023-01-23T10:04:17;14.40;;;6.35;;
71973;SDS011;59840;52.122;5.404;2023-01-23T10:09:41;12.30;;;6.43;;
71973;SDS011;59840;52.122;5.404;2023-01-23T10:12:38;11.85;;;6.80;;
71973;SDS011;59840;52.122;5.404;2023-01-23T10:26:20;14.35;;;6.15;;
71973;SDS011;59840;52.122;5.404;2023-01-23T10:28:50;14.15;;;6.93;;
71973;SDS011;59840;52.122;5.404;2023-01-23T10:31:26;11.70;;;7.07;;
71973;SDS011;59840;52.122;5.404;2023-01-23T10:39:19;11.40;;;5.60;;
71973;SDS011;59840;52.122;5.404;2023-01-23T10:41:51;11.95;;;6.40;;
71973;SDS011;59840;52.122;5.404;2023-01-23T10:44:27;9.38;;;5.45;;
71973;SDS011;59840;52.122;5.404;2023-01-23T10:46:55;13.38;;;6.05;;
71973;SDS011;59840;52.122;5.404;2023-01-23T10:49:35;9.47;;;5.33;;
71973;SDS011;59840;52.122;5.404;2023-01-23T10:54:57;10.32;;;6.47;;
71973;SDS011;59840;52.122;5.404;2023-01-23T10:57:25;10.02;;;6.00;;
71973;SDS011;59840;52.122;5.404;2023-01-23T11:00:00;9.18;;;5.82;;
71973;SDS011;59840;52.122;5.404;2023-01-23T11:02:34;12.53;;;6.63;;
71973;SDS011;59840;52.122;5.404;2023-01-23T11:05:08;11.50;;;5.93;;
71973;SDS011;59840;52.122;5.404;2023-01-23T11:11:10;11.00;;;5.00;;
71973;SDS011;59840;52.122;5.404;2023-01-23T11:13:49;12.02;;;6.15;;
71973;SDS011;59840;52.122;5.404;2023-01-23T11:16:29;10.90;;;5.27;;
71973;SDS011;59840;52.122;5.404;2023-01-23T11:19:03;14.57;;;6.72;;
71973;SDS011;59840;52.122;5.404;2023-01-23T11:21:34;6.97;;;3.72;;
71973;SDS011;59840;52.122;5.404;2023-01-23T11:24:09;8.88;;;5.32;;
71973;SDS011;59840;52.122;5.404;2023-01-23T11:26:45;11.07;;;6.15;;
71973;SDS011;59840;52.122;5.404;2023-01-23T11:29:19;10.93;;;5.70;;
71973;SDS011;59840;52.122;5.404;2023-01-23T11:31:58;13.07;;;6.63;;
71973;SDS011;59840;52.122;5.404;2023-01-23T11:34:33;10.15;;;6.32;;
71973;SDS011;59840;52.122;5.404;2023-01-23T11:37:16;7.05;;;4.55;;
71973;SDS011;59840;52.122;5.404;2023-01-23T11:39:49;9.77;;;5.53;;
71973;SDS011;59840;52.122;5.404;2023-01-23T11:42:29;8.50;;;4.60;;
71973;SDS011;59840;52.122;5.404;2023-01-23T11:44:59;10.73;;;5.57;;
71973;SDS011;59840;52.122;5.404;2023-01-23T11:56:13;7.73;;;4.03;;
71973;SDS011;59840;52.122;5.404;2023-01-23T12:07:01;11.38;;;6.10;;
71973;SDS011;59840;52.122;5.404;2023-01-23T12:10:07;11.53;;;5.50;;
71973;SDS011;59840;52.122;5.404;2023-01-23T12:12:51;8.32;;;5.38;;
71973;SDS011;59840;52.122;5.404;2023-01-23T12:18:23;11.55;;;5.80;;
71973;SDS011;59840;52.122;5.404;2023-01-23T12:37:52;9.77;;;5.23;;
71973;SDS011;59840;52.122;5.404;2023-01-23T12:43:35;7.78;;;4.80;;
71973;SDS011;59840;52.122;5.404;2023-01-23T12:46:09;10.10;;;5.50;;
71973;SDS011;59840;52.122;5.404;2023-01-23T12:51:22;10.00;;;5.63;;
71973;SDS011;59840;52.122;5.404;2023-01-23T12:53:56;11.32;;;5.60;;
71973;SDS011;59840;52.122;5.404;2023-01-23T12:56:29;11.13;;;5.40;;
71973;SDS011;59840;52.122;5.404;2023-01-23T12:59:06;9.25;;;5.47;;
71973;SDS011;59840;52.122;5.404;2023-01-23T13:01:59;8.18;;;5.35;;
71973;SDS011;59840;52.122;5.404;2023-01-23T13:04:42;10.53;;;5.63;;
71973;SDS011;59840;52.122;5.404;2023-01-23T13:07:45;5.30;;;4.15;;
71973;SDS011;59840;52.122;5.404;2023-01-23T13:13:17;9.63;;;5.05;;
71973;SDS011;59840;52.122;5.404;2023-01-23T13:15:59;7.78;;;5.10;;
71973;SDS011;59840;52.122;5.404;2023-01-23T13:18:28;6.00;;;3.67;;
71973;SDS011;59840;52.122;5.404;2023-01-23T13:21:15;7.45;;;4.53;;
71973;SDS011;59840;52.122;5.404;2023-01-23T13:32:54;9.13;;;4.80;;
71973;SDS011;59840;52.122;5.404;2023-01-23T13:46:21;8.50;;;5.00;;
71973;SDS011;59840;52.122;5.404;2023-01-23T13:52:35;5.68;;;3.90;;
71973;SDS011;59840;52.122;5.404;2023-01-23T13:55:43;7.63;;;3.97;;
71973;SDS011;59840;52.122;5.404;2023-01-23T13:58:43;8.00;;;4.72;;
71973;SDS011;59840;52.122;5.404;2023-01-23T14:01:27;6.90;;;4.07;;
71973;SDS011;59840;52.122;5.404;2023-01-23T14:04:31;8.05;;;5.15;;
71973;SDS011;59840;52.122;5.404;2023-01-23T14:07:32;6.93;;;4.53;;
71973;SDS011;59840;52.122;5.404;2023-01-23T14:13:11;9.35;;;5.00;;
71973;SDS011;59840;52.122;5.404;2023-01-23T14:15:53;9.50;;;5.10;;
71973;SDS011;59840;52.122;5.404;2023-01-23T14:18:50;10.65;;;4.82;;
71973;SDS011;59840;52.122;5.404;2023-01-23T14:21:36;10.35;;;4.93;;
71973;SDS011;59840;52.122;5.404;2023-01-23T14:24:23;8.02;;;4.55;;
71973;SDS011;59840;52.122;5.404;2023-01-23T14:26:52;7.30;;;4.50;;
71973;SDS011;59840;52.122;5.404;2023-01-23T14:29:33;11.17;;;4.17;;
71973;SDS011;59840;52.122;5.404;2023-01-23T14:32:00;6.55;;;4.13;;
71973;SDS011;59840;52.122;5.404;2023-01-23T14:34:27;8.60;;;4.53;;
71973;SDS011;59840;52.122;5.404;2023-01-23T14:37:00;6.18;;;3.97;;
71973;SDS011;59840;52.122;5.404;2023-01-23T14:39:29;6.25;;;4.40;;
71973;SDS011;59840;52.122;5.404;2023-01-23T14:41:58;7.10;;;4.30;;
71973;SDS011;59840;52.122;5.404;2023-01-23T14:44:42;6.65;;;4.30;;
71973;SDS011;59840;52.122;5.404;2023-01-23T14:47:14;8.02;;;3.53;;
71973;SDS011;59840;52.122;5.404;2023-01-23T14:49:43;7.43;;;4.22;;
71973;SDS011;59840;52.122;5.404;2023-01-23T14:52:22;6.80;;;4.47;;
71973;SDS011;59840;52.122;5.404;2023-01-23T14:54:51;8.30;;;4.47;;
71973;SDS011;59840;52.122;5.404;2023-01-23T14:57:20;7.18;;;4.50;;
71973;SDS011;59840;52.122;5.404;2023-01-23T14:59:49;6.60;;;4.28;;
71973;SDS011;59840;52.122;5.404;2023-01-23T15:02:31;6.78;;;4.35;;
71973;SDS011;59840;52.122;5.404;2023-01-23T15:07:51;6.13;;;3.70;;
71973;SDS011;59840;52.122;5.404;2023-01-23T15:10:23;8.60;;;5.30;;
71973;SDS011;59840;52.122;5.404;2023-01-23T15:13:05;6.32;;;4.00;;
71973;SDS011;59840;52.122;5.404;2023-01-23T15:15:54;6.95;;;3.88;;
71973;SDS011;59840;52.122;5.404;2023-01-23T15:18:25;8.93;;;4.60;;
71973;SDS011;59840;52.122;5.404;2023-01-23T15:20:57;6.40;;;3.67;;
71973;SDS011;59840;52.122;5.404;2023-01-23T15:23:32;6.80;;;3.72;;
71973;SDS011;59840;52.122;5.404;2023-01-23T15:39:38;6.60;;;4.00;;
71973;SDS011;59840;52.122;5.404;2023-01-23T15:44:40;6.20;;;3.58;;
71973;SDS011;59840;52.122;5.404;2023-01-23T15:47:08;6.17;;;3.67;;
71973;SDS011;59840;52.122;5.404;2023-01-23T15:49:36;7.93;;;4.60;;
71973;SDS011;59840;52.122;5.404;2023-01-23T15:52:20;6.72;;;4.20;;
71973;SDS011;59840;52.122;5.404;2023-01-23T15:54:50;8.98;;;4.22;;
71973;SDS011;59840;52.122;5.404;2023-01-23T15:57:19;8.60;;;4.78;;
71973;SDS011;59840;52.122;5.404;2023-01-23T15:59:45;7.83;;;4.70;;
71973;SDS011;59840;52.122;5.404;2023-01-23T16:02:16;6.80;;;4.25;;
71973;SDS011;59840;52.122;5.404;2023-01-23T16:04:56;7.35;;;4.78;;
71973;SDS011;59840;52.122;5.404;2023-01-23T16:07:24;8.32;;;4.95;;
71973;SDS011;59840;52.122;5.404;2023-01-23T16:09:52;10.63;;;5.47;;
71973;SDS011;59840;52.122;5.404;2023-01-23T16:12:20;9.97;;;5.73;;
71973;SDS011;59840;52.122;5.404;2023-01-23T16:14:52;8.85;;;4.93;;
71973;SDS011;59840;52.122;5.404;2023-01-23T16:17:19;9.02;;;5.55;;
71973;SDS011;59840;52.122;5.404;2023-01-23T16:19:45;10.50;;;5.13;;
71973;SDS011;59840;52.122;5.404;2023-01-23T16:22:13;8.85;;;5.38;;
71973;SDS011;59840;52.122;5.404;2023-01-23T16:24:48;9.30;;;5.40;;
71973;SDS011;59840;52.122;5.404;2023-01-23T16:27:17;9.45;;;5.18;;
71973;SDS011;59840;52.122;5.404;2023-01-23T16:29:46;9.77;;;5.63;;
71973;SDS011;59840;52.122;5.404;2023-01-23T16:32:14;9.15;;;6.03;;
71973;SDS011;59840;52.122;5.404;2023-01-23T16:34:41;7.40;;;5.32;;
71973;SDS011;59840;52.122;5.404;2023-01-23T16:37:10;9.43;;;5.47;;
71973;SDS011;59840;52.122;5.404;2023-01-23T16:39:42;8.70;;;5.07;;
71973;SDS011;59840;52.122;5.404;2023-01-23T16:42:13;10.05;;;5.57;;
71973;SDS011;59840;52.122;5.404;2023-01-23T16:44:42;13.50;;;6.45;;
71973;SDS011;59840;52.122;5.404;2023-01-23T16:47:09;11.63;;;5.90;;
71973;SDS011;59840;52.122;5.404;2023-01-23T16:49:36;10.87;;;5.80;;
71973;SDS011;59840;52.122;5.404;2023-01-23T16:52:18;13.75;;;6.60;;
71973;SDS011;59840;52.122;5.404;2023-01-23T16:54:45;13.32;;;6.93;;
71973;SDS011;59840;52.122;5.404;2023-01-23T16:57:14;12.43;;;7.05;;
71973;SDS011;59840;52.122;5.404;2023-01-23T16:59:44;13.13;;;6.80;;
71973;SDS011;59840;52.122;5.404;2023-01-23T17:02:20;16.90;;;6.90;;
71973;SDS011;59840;52.122;5.404;2023-01-23T17:04:51;11.48;;;6.90;;
71973;SDS011;59840;52.122;5.404;2023-01-23T17:07:17;13.25;;;6.55;;
71973;SDS011;59840;52.122;5.404;2023-01-23T17:09:44;12.90;;;7.63;;
71973;SDS011;59840;52.122;5.404;2023-01-23T17:12:16;14.38;;;6.03;;
71973;SDS011;59840;52.122;5.404;2023-01-23T17:14:46;14.00;;;6.67;;
71973;SDS011;59840;52.122;5.404;2023-01-23T17:17:15;10.50;;;5.25;;